sensor_id;sensor_type;location;lat;lon;timestamp;temperature;humidity
61253;DHT22;47127;47.516;8.596;2023-01-04T00:00:21;8.30;99.90
61253;DHT22;47127;47.516;8.596;2023-01-04T00:02:47;8.20;99.90
61253;DHT22;47127;47.516;8.596;2023-01-04T00:05:12;8.20;99.90
61253;DHT22;47127;47.516;8.596;2023-01-04T00:07:38;8.20;99.90
61253;DHT22;47127;47.516;8.596;2023-01-04T00:10:04;8.20;99.90
61253;DHT22;47127;47.516;8.596;2023-01-04T00:12:29;8.30;99.90
61253;DHT22;47127;47.516;8.596;2023-01-04T00:14:55;8.20;99.90
61253;DHT22;47127;47.516;8.596;2023-01-04T00:17:21;8.20;99.90
61253;DHT22;47127;47.516;8.596;2023-01-04T00:19:46;8.20;99.90
61253;DHT22;47127;47.516;8.596;2023-01-04T00:22:12;8.20;99.90
61253;DHT22;47127;47.516;8.596;2023-01-04T00:24:37;8.10;99.90
61253;DHT22;47127;47.516;8.596;2023-01-04T00:27:03;8.10;99.90
61253;DHT22;47127;47.516;8.596;2023-01-04T00:29:28;8.10;99.90
61253;DHT22;47127;47.516;8.596;2023-01-04T00:31:54;8.10;99.90
61253;DHT22;47127;47.516;8.596;2023-01-04T00:34:19;8.20;99.90
61253;DHT22;47127;47.516;8.596;2023-01-04T00:36:45;8.20;99.90
61253;DHT22;47127;47.516;8.596;2023-01-04T00:39:13;8.10;99.90
61253;DHT22;47127;47.516;8.596;2023-01-04T00:41:45;8.10;99.90
61253;DHT22;47127;47.516;8.596;2023-01-04T00:44:11;8.00;99.90
61253;DHT22;47127;47.516;8.596;2023-01-04T00:46:37;8.00;99.90
61253;DHT22;47127;47.516;8.596;2023-01-04T00:49:04;8.10;99.90
61253;DHT22;47127;47.516;8.596;2023-01-04T00:51:31;8.00;99.90
61253;DHT22;47127;47.516;8.596;2023-01-04T00:53:59;8.00;99.90
61253;DHT22;47127;47.516;8.596;2023-01-04T00:56:29;8.00;99.90
61253;DHT22;47127;47.516;8.596;2023-01-04T00:58:56;8.10;99.90
61253;DHT22;47127;47.516;8.596;2023-01-04T01:01:23;8.10;99.90
61253;DHT22;47127;47.516;8.596;2023-01-04T01:03:52;8.10;99.90
61253;DHT22;47127;47.516;8.596;2023-01-04T01:06:18;8.10;99.90
61253;DHT22;47127;47.516;8.596;2023-01-04T01:08:44;8.00;99.90
61253;DHT22;47127;47.516;8.596;2023-01-04T01:11:10;7.90;99.90
61253;DHT22;47127;47.516;8.596;2023-01-04T01:13:36;7.70;99.90
61253;DHT22;47127;47.516;8.596;2023-01-04T01:16:04;7.70;99.90
61253;DHT22;47127;47.516;8.596;2023-01-04T01:18:31;7.70;99.90
61253;DHT22;47127;47.516;8.596;2023-01-04T01:20:57;7.80;99.90
61253;DHT22;47127;47.516;8.596;2023-01-04T01:23:23;7.90;99.90
61253;DHT22;47127;47.516;8.596;2023-01-04T01:25:48;7.90;99.90
61253;DHT22;47127;47.516;8.596;2023-01-04T01:28:14;7.80;99.90
61253;DHT22;47127;47.516;8.596;2023-01-04T01:30:40;7.90;99.90
61253;DHT22;47127;47.516;8.596;2023-01-04T01:33:07;8.00;99.90
61253;DHT22;47127;47.516;8.596;2023-01-04T01:35:33;8.00;99.90
61253;DHT22;47127;47.516;8.596;2023-01-04T01:37:59;8.10;99.90
61253;DHT22;47127;47.516;8.596;2023-01-04T01:40:24;8.10;99.90
61253;DHT22;47127;47.516;8.596;2023-01-04T01:42:50;8.10;99.90
61253;DHT22;47127;47.516;8.596;2023-01-04T01:45:25;8.10;99.90
61253;DHT22;47127;47.516;8.596;2023-01-04T01:47:51;7.90;99.90
61253;DHT22;47127;47.516;8.596;2023-01-04T01:50:30;7.90;99.90
61253;DHT22;47127;47.516;8.596;2023-01-04T01:52:59;7.90;99.90
61253;DHT22;47127;47.516;8.596;2023-01-04T01:55:25;7.90;99.90
61253;DHT22;47127;47.516;8.596;2023-01-04T01:57:53;7.90;99.90
61253;DHT22;47127;47.516;8.596;2023-01-04T02:00:19;7.90;99.90
61253;DHT22;47127;47.516;8.596;2023-01-04T02:05:33;7.80;99.90
61253;DHT22;47127;47.516;8.596;2023-01-04T02:08:01;7.80;99.90
61253;DHT22;47127;47.516;8.596;2023-01-04T02:10:28;7.90;99.90
61253;DHT22;47127;47.516;8.596;2023-01-04T02:12:53;7.90;99.90
61253;DHT22;47127;47.516;8.596;2023-01-04T02:15:21;8.00;99.90
61253;DHT22;47127;47.516;8.596;2023-01-04T02:20:26;8.10;99.90
61253;DHT22;47127;47.516;8.596;2023-01-04T02:26:09;8.00;99.90
61253;DHT22;47127;47.516;8.596;2023-01-04T02:29:02;8.00;99.90
61253;DHT22;47127;47.516;8.596;2023-01-04T02:31:38;7.90;99.90
61253;DHT22;47127;47.516;8.596;2023-01-04T02:34:20;8.00;99.90
61253;DHT22;47127;47.516;8.596;2023-01-04T02:36:57;8.00;99.90
61253;DHT22;47127;47.516;8.596;2023-01-04T02:39:36;8.00;99.90
61253;DHT22;47127;47.516;8.596;2023-01-04T02:42:14;8.00;99.90
61253;DHT22;47127;47.516;8.596;2023-01-04T02:44:51;8.00;99.90
61253;DHT22;47127;47.516;8.596;2023-01-04T02:47:36;8.10;99.90
61253;DHT22;47127;47.516;8.596;2023-01-04T02:53:06;8.10;99.90
61253;DHT22;47127;47.516;8.596;2023-01-04T03:07:11;8.00;99.90
61253;DHT22;47127;47.516;8.596;2023-01-04T03:09:40;8.00;99.90
61253;DHT22;47127;47.516;8.596;2023-01-04T03:12:11;8.00;99.90
61253;DHT22;47127;47.516;8.596;2023-01-04T03:15:09;8.10;99.90
61253;DHT22;47127;47.516;8.596;2023-01-04T03:17:54;8.00;99.90
61253;DHT22;47127;47.516;8.596;2023-01-04T03:20:22;8.10;99.90
61253;DHT22;47127;47.516;8.596;2023-01-04T03:22:59;8.10;99.90
61253;DHT22;47127;47.516;8.596;2023-01-04T03:25:50;8.10;99.90
61253;DHT22;47127;47.516;8.596;2023-01-04T03:28:36;8.10;99.90
61253;DHT22;47127;47.516;8.596;2023-01-04T03:31:25;8.10;99.90
61253;DHT22;47127;47.516;8.596;2023-01-04T03:34:10;7.90;99.90
61253;DHT22;47127;47.516;8.596;2023-01-04T03:37:02;7.90;99.90
61253;DHT22;47127;47.516;8.596;2023-01-04T03:40:26;7.90;99.90
61253;DHT22;47127;47.516;8.596;2023-01-04T03:43:02;7.90;99.90
61253;DHT22;47127;47.516;8.596;2023-01-04T03:45:55;7.80;99.90
61253;DHT22;47127;47.516;8.596;2023-01-04T03:48:49;7.90;99.90
61253;DHT22;47127;47.516;8.596;2023-01-04T03:51:21;7.90;99.90
61253;DHT22;47127;47.516;8.596;2023-01-04T03:53:57;8.00;99.90
61253;DHT22;47127;47.516;8.596;2023-01-04T03:56:24;7.90;99.90
61253;DHT22;47127;47.516;8.596;2023-01-04T03:58:51;7.80;99.90
61253;DHT22;47127;47.516;8.596;2023-01-04T04:01:18;7.80;99.90
61253;DHT22;47127;47.516;8.596;2023-01-04T04:03:44;7.80;99.90
61253;DHT22;47127;47.516;8.596;2023-01-04T04:06:29;7.80;99.90
61253;DHT22;47127;47.516;8.596;2023-01-04T04:09:13;7.80;99.90
61253;DHT22;47127;47.516;8.596;2023-01-04T04:11:39;7.70;99.90
61253;DHT22;47127;47.516;8.596;2023-01-04T04:14:04;7.60;99.90
61253;DHT22;47127;47.516;8.596;2023-01-04T04:16:30;7.60;99.90
61253;DHT22;47127;47.516;8.596;2023-01-04T04:18:55;7.40;99.90
61253;DHT22;47127;47.516;8.596;2023-01-04T04:21:21;7.50;99.90
61253;DHT22;47127;47.516;8.596;2023-01-04T04:23:47;7.50;99.90
61253;DHT22;47127;47.516;8.596;2023-01-04T04:26:13;7.50;99.90
61253;DHT22;47127;47.516;8.596;2023-01-04T04:28:39;7.50;99.90
61253;DHT22;47127;47.516;8.596;2023-01-04T04:31:05;7.40;99.90
61253;DHT22;47127;47.516;8.596;2023-01-04T04:33:32;7.50;99.90
61253;DHT22;47127;47.516;8.596;2023-01-04T04:35:57;7.50;99.90
61253;DHT22;47127;47.516;8.596;2023-01-04T04:38:23;7.50;99.90
61253;DHT22;47127;47.516;8.596;2023-01-04T04:40:48;7.50;99.90
61253;DHT22;47127;47.516;8.596;2023-01-04T04:43:33;7.50;99.90
61253;DHT22;47127;47.516;8.596;2023-01-04T04:45:59;7.50;99.90
61253;DHT22;47127;47.516;8.596;2023-01-04T04:48:25;7.30;99.90
61253;DHT22;47127;47.516;8.596;2023-01-04T04:50:50;7.30;99.90
61253;DHT22;47127;47.516;8.596;2023-01-04T04:53:16;7.30;99.90
61253;DHT22;47127;47.516;8.596;2023-01-04T04:55:41;7.30;99.90
61253;DHT22;47127;47.516;8.596;2023-01-04T04:58:07;7.20;99.90
61253;DHT22;47127;47.516;8.596;2023-01-04T05:00:33;7.20;99.90
61253;DHT22;47127;47.516;8.596;2023-01-04T05:02:59;7.30;99.90
61253;DHT22;47127;47.516;8.596;2023-01-04T05:05:25;7.30;99.90
61253;DHT22;47127;47.516;8.596;2023-01-04T05:07:51;7.40;99.90
61253;DHT22;47127;47.516;8.596;2023-01-04T05:10:17;7.40;99.90
61253;DHT22;47127;47.516;8.596;2023-01-04T05:12:42;7.40;99.90
61253;DHT22;47127;47.516;8.596;2023-01-04T05:15:27;7.40;99.90
61253;DHT22;47127;47.516;8.596;2023-01-04T05:17:53;7.20;99.90
61253;DHT22;47127;47.516;8.596;2023-01-04T05:20:18;7.30;99.90
61253;DHT22;47127;47.516;8.596;2023-01-04T05:22:44;7.40;99.90
61253;DHT22;47127;47.516;8.596;2023-01-04T05:25:09;7.30;99.90
61253;DHT22;47127;47.516;8.596;2023-01-04T05:27:36;7.40;99.90
61253;DHT22;47127;47.516;8.596;2023-01-04T05:30:05;7.50;99.90
61253;DHT22;47127;47.516;8.596;2023-01-04T05:32:49;7.50;99.90
61253;DHT22;47127;47.516;8.596;2023-01-04T05:35:15;7.50;99.90
61253;DHT22;47127;47.516;8.596;2023-01-04T05:37:41;7.50;99.90
61253;DHT22;47127;47.516;8.596;2023-01-04T05:40:07;7.50;99.90
61253;DHT22;47127;47.516;8.596;2023-01-04T05:42:33;7.40;99.90
61253;DHT22;47127;47.516;8.596;2023-01-04T05:44:59;7.40;99.90
61253;DHT22;47127;47.516;8.596;2023-01-04T05:47:27;7.50;99.90
61253;DHT22;47127;47.516;8.596;2023-01-04T05:49:52;7.50;99.90
61253;DHT22;47127;47.516;8.596;2023-01-04T05:52:19;7.50;99.90
61253;DHT22;47127;47.516;8.596;2023-01-04T05:54:45;7.50;99.90
61253;DHT22;47127;47.516;8.596;2023-01-04T05:57:11;7.50;99.90
61253;DHT22;47127;47.516;8.596;2023-01-04T05:59:37;7.40;99.90
61253;DHT22;47127;47.516;8.596;2023-01-04T06:02:03;7.40;99.90
61253;DHT22;47127;47.516;8.596;2023-01-04T06:04:29;7.30;99.90
61253;DHT22;47127;47.516;8.596;2023-01-04T06:06:54;7.40;99.90
61253;DHT22;47127;47.516;8.596;2023-01-04T06:09:20;7.40;99.90
61253;DHT22;47127;47.516;8.596;2023-01-04T06:11:45;7.40;99.90
61253;DHT22;47127;47.516;8.596;2023-01-04T06:14:11;7.40;99.90
61253;DHT22;47127;47.516;8.596;2023-01-04T06:16:36;7.40;99.90
61253;DHT22;47127;47.516;8.596;2023-01-04T06:19:02;7.40;99.90
61253;DHT22;47127;47.516;8.596;2023-01-04T06:21:28;7.30;99.90
61253;DHT22;47127;47.516;8.596;2023-01-04T06:23:53;7.30;99.90
61253;DHT22;47127;47.516;8.596;2023-01-04T06:26:19;7.20;99.90
61253;DHT22;47127;47.516;8.596;2023-01-04T06:28:44;7.20;99.90
61253;DHT22;47127;47.516;8.596;2023-01-04T06:31:12;7.30;99.90
61253;DHT22;47127;47.516;8.596;2023-01-04T06:33:38;7.40;99.90
61253;DHT22;47127;47.516;8.596;2023-01-04T06:36:04;7.40;99.90
61253;DHT22;47127;47.516;8.596;2023-01-04T06:38:31;7.40;99.90
61253;DHT22;47127;47.516;8.596;2023-01-04T06:40:57;7.40;99.90
61253;DHT22;47127;47.516;8.596;2023-01-04T06:43:23;7.40;99.90
61253;DHT22;47127;47.516;8.596;2023-01-04T06:45:48;7.40;99.90
61253;DHT22;47127;47.516;8.596;2023-01-04T06:48:14;7.40;99.90
61253;DHT22;47127;47.516;8.596;2023-01-04T06:50:40;7.40;99.90
61253;DHT22;47127;47.516;8.596;2023-01-04T06:53:05;7.40;99.90
61253;DHT22;47127;47.516;8.596;2023-01-04T06:55:31;7.50;99.90
61253;DHT22;47127;47.516;8.596;2023-01-04T06:57:57;7.50;99.90
61253;DHT22;47127;47.516;8.596;2023-01-04T07:00:23;7.60;99.90
61253;DHT22;47127;47.516;8.596;2023-01-04T07:02:50;7.60;99.90
61253;DHT22;47127;47.516;8.596;2023-01-04T07:05:16;7.80;99.90
61253;DHT22;47127;47.516;8.596;2023-01-04T07:07:41;7.80;99.90
61253;DHT22;47127;47.516;8.596;2023-01-04T07:10:07;7.80;99.90
61253;DHT22;47127;47.516;8.596;2023-01-04T07:12:33;7.80;99.90
61253;DHT22;47127;47.516;8.596;2023-01-04T07:14:59;7.70;99.90
61253;DHT22;47127;47.516;8.596;2023-01-04T07:17:25;7.70;99.90
61253;DHT22;47127;47.516;8.596;2023-01-04T07:19:51;7.70;99.90
61253;DHT22;47127;47.516;8.596;2023-01-04T07:22:16;7.70;99.90
61253;DHT22;47127;47.516;8.596;2023-01-04T07:24:42;7.70;99.90
61253;DHT22;47127;47.516;8.596;2023-01-04T07:27:09;7.70;99.90
61253;DHT22;47127;47.516;8.596;2023-01-04T07:29:34;7.80;99.90
61253;DHT22;47127;47.516;8.596;2023-01-04T07:32:00;7.80;99.90
61253;DHT22;47127;47.516;8.596;2023-01-04T07:34:26;7.80;99.90
61253;DHT22;47127;47.516;8.596;2023-01-04T07:36:53;7.80;99.90
61253;DHT22;47127;47.516;8.596;2023-01-04T07:39:19;7.90;99.90
61253;DHT22;47127;47.516;8.596;2023-01-04T07:41:46;7.90;99.90
61253;DHT22;47127;47.516;8.596;2023-01-04T07:44:12;7.90;99.90
61253;DHT22;47127;47.516;8.596;2023-01-04T07:46:38;7.80;99.90
61253;DHT22;47127;47.516;8.596;2023-01-04T07:49:04;7.70;99.90
61253;DHT22;47127;47.516;8.596;2023-01-04T07:51:30;7.60;99.90
61253;DHT22;47127;47.516;8.596;2023-01-04T07:53:57;7.60;99.90
61253;DHT22;47127;47.516;8.596;2023-01-04T07:56:22;7.70;99.90
61253;DHT22;47127;47.516;8.596;2023-01-04T07:58:48;7.60;99.90
61253;DHT22;47127;47.516;8.596;2023-01-04T08:01:16;7.60;99.90
61253;DHT22;47127;47.516;8.596;2023-01-04T08:03:44;7.70;99.90
61253;DHT22;47127;47.516;8.596;2023-01-04T08:06:11;7.60;99.90
61253;DHT22;47127;47.516;8.596;2023-01-04T08:08:38;7.70;99.90
61253;DHT22;47127;47.516;8.596;2023-01-04T08:11:06;7.70;99.90
61253;DHT22;47127;47.516;8.596;2023-01-04T08:13:33;7.70;99.90
61253;DHT22;47127;47.516;8.596;2023-01-04T08:15:58;7.70;99.90
61253;DHT22;47127;47.516;8.596;2023-01-04T08:18:24;7.70;99.90
61253;DHT22;47127;47.516;8.596;2023-01-04T08:20:59;7.90;99.90
61253;DHT22;47127;47.516;8.596;2023-01-04T08:23:25;8.10;99.90
61253;DHT22;47127;47.516;8.596;2023-01-04T08:25:50;8.00;99.90
61253;DHT22;47127;47.516;8.596;2023-01-04T08:28:16;8.10;99.90
61253;DHT22;47127;47.516;8.596;2023-01-04T08:30:41;8.20;99.90
61253;DHT22;47127;47.516;8.596;2023-01-04T08:33:14;8.30;99.90
61253;DHT22;47127;47.516;8.596;2023-01-04T08:35:40;8.50;99.90
61253;DHT22;47127;47.516;8.596;2023-01-04T08:38:05;8.50;99.90
61253;DHT22;47127;47.516;8.596;2023-01-04T08:40:31;8.50;99.90
61253;DHT22;47127;47.516;8.596;2023-01-04T08:42:56;8.50;99.90
61253;DHT22;47127;47.516;8.596;2023-01-04T08:45:22;8.50;99.90
61253;DHT22;47127;47.516;8.596;2023-01-04T08:47:47;8.50;99.90
61253;DHT22;47127;47.516;8.596;2023-01-04T08:50:13;8.50;99.90
61253;DHT22;47127;47.516;8.596;2023-01-04T08:52:41;8.60;99.90
61253;DHT22;47127;47.516;8.596;2023-01-04T08:55:07;8.60;99.90
61253;DHT22;47127;47.516;8.596;2023-01-04T08:57:33;8.60;99.90
61253;DHT22;47127;47.516;8.596;2023-01-04T08:59:59;8.60;99.90
61253;DHT22;47127;47.516;8.596;2023-01-04T09:02:26;8.70;99.90
61253;DHT22;47127;47.516;8.596;2023-01-04T09:04:52;8.80;99.90
61253;DHT22;47127;47.516;8.596;2023-01-04T09:07:24;8.70;99.90
61253;DHT22;47127;47.516;8.596;2023-01-04T09:09:49;8.70;99.90
61253;DHT22;47127;47.516;8.596;2023-01-04T09:12:15;8.70;99.90
61253;DHT22;47127;47.516;8.596;2023-01-04T09:14:40;8.60;99.90
61253;DHT22;47127;47.516;8.596;2023-01-04T09:17:06;8.60;99.90
61253;DHT22;47127;47.516;8.596;2023-01-04T09:19:33;8.60;99.90
61253;DHT22;47127;47.516;8.596;2023-01-04T09:21:58;8.70;99.90
61253;DHT22;47127;47.516;8.596;2023-01-04T09:24:24;8.80;99.90
61253;DHT22;47127;47.516;8.596;2023-01-04T09:26:51;8.80;99.90
61253;DHT22;47127;47.516;8.596;2023-01-04T09:29:16;8.90;99.90
61253;DHT22;47127;47.516;8.596;2023-01-04T09:31:42;8.80;99.90
61253;DHT22;47127;47.516;8.596;2023-01-04T09:34:08;8.80;99.90
61253;DHT22;47127;47.516;8.596;2023-01-04T09:36:35;8.70;99.90
61253;DHT22;47127;47.516;8.596;2023-01-04T09:39:00;8.60;99.90
61253;DHT22;47127;47.516;8.596;2023-01-04T09:41:28;8.60;99.90
61253;DHT22;47127;47.516;8.596;2023-01-04T09:44:03;8.70;99.90
61253;DHT22;47127;47.516;8.596;2023-01-04T09:46:56;8.60;99.90
61253;DHT22;47127;47.516;8.596;2023-01-04T09:49:37;8.50;99.90
61253;DHT22;47127;47.516;8.596;2023-01-04T09:52:08;8.60;99.90
61253;DHT22;47127;47.516;8.596;2023-01-04T09:54:59;8.60;99.90
61253;DHT22;47127;47.516;8.596;2023-01-04T10:00:26;8.60;99.90
61253;DHT22;47127;47.516;8.596;2023-01-04T10:05:28;8.80;99.90
61253;DHT22;47127;47.516;8.596;2023-01-04T10:07:55;8.70;99.90
61253;DHT22;47127;47.516;8.596;2023-01-04T10:18:57;8.90;99.90
61253;DHT22;47127;47.516;8.596;2023-01-04T10:24:22;9.20;99.90
61253;DHT22;47127;47.516;8.596;2023-01-04T10:26:58;9.00;99.90
61253;DHT22;47127;47.516;8.596;2023-01-04T10:32:16;8.90;99.90
61253;DHT22;47127;47.516;8.596;2023-01-04T10:34:45;9.00;99.90
61253;DHT22;47127;47.516;8.596;2023-01-04T10:37:32;9.10;99.90
61253;DHT22;47127;47.516;8.596;2023-01-04T10:39:59;9.20;99.90
61253;DHT22;47127;47.516;8.596;2023-01-04T10:42:31;9.10;99.90
61253;DHT22;47127;47.516;8.596;2023-01-04T10:47:39;9.10;99.90
61253;DHT22;47127;47.516;8.596;2023-01-04T10:50:10;9.20;99.90
61253;DHT22;47127;47.516;8.596;2023-01-04T10:52:53;9.30;99.90
61253;DHT22;47127;47.516;8.596;2023-01-04T10:55:42;9.30;99.90
61253;DHT22;47127;47.516;8.596;2023-01-04T10:58:18;9.30;99.90
61253;DHT22;47127;47.516;8.596;2023-01-04T11:00:55;9.30;99.90
61253;DHT22;47127;47.516;8.596;2023-01-04T11:03:32;9.40;99.90
61253;DHT22;47127;47.516;8.596;2023-01-04T11:08:36;9.40;99.90
61253;DHT22;47127;47.516;8.596;2023-01-04T11:11:10;9.30;99.90
61253;DHT22;47127;47.516;8.596;2023-01-04T11:13:36;9.40;99.90
61253;DHT22;47127;47.516;8.596;2023-01-04T11:16:03;9.50;99.90
61253;DHT22;47127;47.516;8.596;2023-01-04T11:18:30;9.50;99.90
61253;DHT22;47127;47.516;8.596;2023-01-04T11:20:57;9.40;99.90
61253;DHT22;47127;47.516;8.596;2023-01-04T11:23:23;9.50;99.90
61253;DHT22;47127;47.516;8.596;2023-01-04T11:25:56;9.50;99.90
61253;DHT22;47127;47.516;8.596;2023-01-04T11:28:35;9.50;99.90
61253;DHT22;47127;47.516;8.596;2023-01-04T11:31:15;9.50;99.90
61253;DHT22;47127;47.516;8.596;2023-01-04T11:36:34;9.60;99.90
61253;DHT22;47127;47.516;8.596;2023-01-04T11:39:01;9.50;99.90
61253;DHT22;47127;47.516;8.596;2023-01-04T11:41:26;9.60;99.90
61253;DHT22;47127;47.516;8.596;2023-01-04T11:46:23;9.50;99.90
61253;DHT22;47127;47.516;8.596;2023-01-04T11:48:50;9.40;99.90
61253;DHT22;47127;47.516;8.596;2023-01-04T11:54:02;9.50;99.90
61253;DHT22;47127;47.516;8.596;2023-01-04T11:56:31;9.50;99.90
61253;DHT22;47127;47.516;8.596;2023-01-04T12:01:28;9.70;99.90
61253;DHT22;47127;47.516;8.596;2023-01-04T12:03:54;9.60;99.90
61253;DHT22;47127;47.516;8.596;2023-01-04T12:08:57;9.50;99.90
61253;DHT22;47127;47.516;8.596;2023-01-04T12:11:33;9.60;99.90
61253;DHT22;47127;47.516;8.596;2023-01-04T12:13:59;9.60;99.90
61253;DHT22;47127;47.516;8.596;2023-01-04T12:16:42;9.60;99.90
61253;DHT22;47127;47.516;8.596;2023-01-04T12:19:14;9.50;99.90
61253;DHT22;47127;47.516;8.596;2023-01-04T12:21:43;9.50;99.90
61253;DHT22;47127;47.516;8.596;2023-01-04T12:24:18;9.40;99.90
61253;DHT22;47127;47.516;8.596;2023-01-04T12:26:45;9.50;99.90
61253;DHT22;47127;47.516;8.596;2023-01-04T12:31:51;9.60;99.90
61253;DHT22;47127;47.516;8.596;2023-01-04T12:39:25;9.50;99.90
61253;DHT22;47127;47.516;8.596;2023-01-04T12:47:01;9.50;99.90
61253;DHT22;47127;47.516;8.596;2023-01-04T12:49:59;9.60;99.90
61253;DHT22;47127;47.516;8.596;2023-01-04T12:57:37;9.80;99.90
61253;DHT22;47127;47.516;8.596;2023-01-04T13:00:10;9.80;99.90
61253;DHT22;47127;47.516;8.596;2023-01-04T13:02:40;9.80;99.90
61253;DHT22;47127;47.516;8.596;2023-01-04T13:07:57;9.80;99.90
61253;DHT22;47127;47.516;8.596;2023-01-04T13:21:25;9.80;99.90
61253;DHT22;47127;47.516;8.596;2023-01-04T13:26:38;9.90;99.90
61253;DHT22;47127;47.516;8.596;2023-01-04T13:29:20;10.00;99.90
61253;DHT22;47127;47.516;8.596;2023-01-04T13:31:47;10.10;99.90
61253;DHT22;47127;47.516;8.596;2023-01-04T13:34:33;10.00;99.90
61253;DHT22;47127;47.516;8.596;2023-01-04T13:37:01;9.90;99.90
61253;DHT22;47127;47.516;8.596;2023-01-04T13:39:29;9.90;99.90
61253;DHT22;47127;47.516;8.596;2023-01-04T13:41:56;9.80;99.90
61253;DHT22;47127;47.516;8.596;2023-01-04T13:46:56;9.80;99.90
61253;DHT22;47127;47.516;8.596;2023-01-04T13:49:22;9.80;99.90
61253;DHT22;47127;47.516;8.596;2023-01-04T13:51:48;9.90;99.90
61253;DHT22;47127;47.516;8.596;2023-01-04T13:54:21;9.90;99.90
61253;DHT22;47127;47.516;8.596;2023-01-04T13:56:47;9.90;99.90
61253;DHT22;47127;47.516;8.596;2023-01-04T13:59:14;9.90;99.90
61253;DHT22;47127;47.516;8.596;2023-01-04T14:01:44;10.00;99.90
61253;DHT22;47127;47.516;8.596;2023-01-04T14:04:14;10.10;99.90
61253;DHT22;47127;47.516;8.596;2023-01-04T14:06:46;10.20;99.90
61253;DHT22;47127;47.516;8.596;2023-01-04T14:09:13;10.20;99.90
61253;DHT22;47127;47.516;8.596;2023-01-04T14:11:52;10.20;99.90
61253;DHT22;47127;47.516;8.596;2023-01-04T14:15:02;10.30;99.90
61253;DHT22;47127;47.516;8.596;2023-01-04T14:17:46;10.20;99.90
61253;DHT22;47127;47.516;8.596;2023-01-04T14:33:29;10.20;99.90
61253;DHT22;47127;47.516;8.596;2023-01-04T14:41:23;10.10;99.90
61253;DHT22;47127;47.516;8.596;2023-01-04T14:44:07;10.10;99.90
61253;DHT22;47127;47.516;8.596;2023-01-04T14:46:33;10.20;99.90
61253;DHT22;47127;47.516;8.596;2023-01-04T14:48:59;10.20;99.90
61253;DHT22;47127;47.516;8.596;2023-01-04T14:51:47;10.30;99.90
61253;DHT22;47127;47.516;8.596;2023-01-04T14:54:14;10.20;99.90
61253;DHT22;47127;47.516;8.596;2023-01-04T14:56:41;10.20;99.90
61253;DHT22;47127;47.516;8.596;2023-01-04T14:59:07;10.10;99.90
61253;DHT22;47127;47.516;8.596;2023-01-04T15:01:33;10.20;99.90
61253;DHT22;47127;47.516;8.596;2023-01-04T15:04:00;10.10;99.90
61253;DHT22;47127;47.516;8.596;2023-01-04T15:06:26;10.10;99.90
61253;DHT22;47127;47.516;8.596;2023-01-04T15:08:52;10.10;99.90
61253;DHT22;47127;47.516;8.596;2023-01-04T15:11:18;10.10;99.90
61253;DHT22;47127;47.516;8.596;2023-01-04T15:13:44;10.10;99.90
61253;DHT22;47127;47.516;8.596;2023-01-04T15:16:15;10.10;99.90
61253;DHT22;47127;47.516;8.596;2023-01-04T15:18:42;10.10;99.90
61253;DHT22;47127;47.516;8.596;2023-01-04T15:21:10;10.20;99.90
61253;DHT22;47127;47.516;8.596;2023-01-04T15:23:36;10.20;99.90
61253;DHT22;47127;47.516;8.596;2023-01-04T15:26:06;10.10;99.90
61253;DHT22;47127;47.516;8.596;2023-01-04T15:28:32;10.10;99.90
61253;DHT22;47127;47.516;8.596;2023-01-04T15:30:58;10.10;99.90
61253;DHT22;47127;47.516;8.596;2023-01-04T15:33:26;10.10;99.90
61253;DHT22;47127;47.516;8.596;2023-01-04T15:35:59;10.20;99.90
61253;DHT22;47127;47.516;8.596;2023-01-04T15:38:24;10.10;99.90
61253;DHT22;47127;47.516;8.596;2023-01-04T15:40:50;10.10;99.90
61253;DHT22;47127;47.516;8.596;2023-01-04T15:43:16;10.10;99.90
61253;DHT22;47127;47.516;8.596;2023-01-04T15:45:41;10.10;99.90
61253;DHT22;47127;47.516;8.596;2023-01-04T15:48:09;10.10;99.90
61253;DHT22;47127;47.516;8.596;2023-01-04T15:51:10;10.10;99.90
61253;DHT22;47127;47.516;8.596;2023-01-04T15:53:35;10.10;99.90
61253;DHT22;47127;47.516;8.596;2023-01-04T15:56:09;10.10;99.90
61253;DHT22;47127;47.516;8.596;2023-01-04T15:58:35;10.10;99.90
61253;DHT22;47127;47.516;8.596;2023-01-04T16:01:12;10.20;99.90
61253;DHT22;47127;47.516;8.596;2023-01-04T16:03:38;10.20;99.90
61253;DHT22;47127;47.516;8.596;2023-01-04T16:06:09;10.10;99.90
61253;DHT22;47127;47.516;8.596;2023-01-04T16:08:37;10.10;99.90
61253;DHT22;47127;47.516;8.596;2023-01-04T16:11:18;10.10;99.90
61253;DHT22;47127;47.516;8.596;2023-01-04T16:13:45;10.10;99.90
61253;DHT22;47127;47.516;8.596;2023-01-04T16:16:11;10.10;99.90
61253;DHT22;47127;47.516;8.596;2023-01-04T16:18:37;10.10;99.90
61253;DHT22;47127;47.516;8.596;2023-01-04T16:21:07;10.10;99.90
61253;DHT22;47127;47.516;8.596;2023-01-04T16:23:33;10.10;99.90
61253;DHT22;47127;47.516;8.596;2023-01-04T16:26:11;10.10;99.90
61253;DHT22;47127;47.516;8.596;2023-01-04T16:28:37;10.10;99.90
61253;DHT22;47127;47.516;8.596;2023-01-04T16:31:03;10.10;99.90
61253;DHT22;47127;47.516;8.596;2023-01-04T16:33:29;10.10;99.90
61253;DHT22;47127;47.516;8.596;2023-01-04T16:36:00;10.10;99.90
61253;DHT22;47127;47.516;8.596;2023-01-04T16:38:26;10.10;99.90
61253;DHT22;47127;47.516;8.596;2023-01-04T16:40:56;10.20;99.90
61253;DHT22;47127;47.516;8.596;2023-01-04T16:43:22;10.20;99.90
61253;DHT22;47127;47.516;8.596;2023-01-04T16:45:47;10.20;99.90
61253;DHT22;47127;47.516;8.596;2023-01-04T16:48:13;10.20;99.90
61253;DHT22;47127;47.516;8.596;2023-01-04T16:50:38;10.20;99.90
61253;DHT22;47127;47.516;8.596;2023-01-04T16:53:04;10.20;99.90
61253;DHT22;47127;47.516;8.596;2023-01-04T16:55:30;10.20;99.90
61253;DHT22;47127;47.516;8.596;2023-01-04T16:57:56;10.20;99.90
61253;DHT22;47127;47.516;8.596;2023-01-04T17:00:21;10.20;99.90
61253;DHT22;47127;47.516;8.596;2023-01-04T17:02:48;10.30;99.90
61253;DHT22;47127;47.516;8.596;2023-01-04T17:05:13;10.30;99.90
61253;DHT22;47127;47.516;8.596;2023-01-04T17:07:39;10.30;99.90
61253;DHT22;47127;47.516;8.596;2023-01-04T17:10:05;10.30;99.90
61253;DHT22;47127;47.516;8.596;2023-01-04T17:12:30;10.30;99.90
61253;DHT22;47127;47.516;8.596;2023-01-04T17:14:56;10.30;99.90
61253;DHT22;47127;47.516;8.596;2023-01-04T17:17:22;10.40;99.90
61253;DHT22;47127;47.516;8.596;2023-01-04T17:19:48;10.30;99.90
61253;DHT22;47127;47.516;8.596;2023-01-04T17:22:14;10.30;99.90
61253;DHT22;47127;47.516;8.596;2023-01-04T17:24:39;10.40;99.90
61253;DHT22;47127;47.516;8.596;2023-01-04T17:27:06;10.40;99.90
61253;DHT22;47127;47.516;8.596;2023-01-04T17:29:32;10.40;99.90
61253;DHT22;47127;47.516;8.596;2023-01-04T17:31:57;10.50;99.90
61253;DHT22;47127;47.516;8.596;2023-01-04T17:34:23;10.50;99.90
61253;DHT22;47127;47.516;8.596;2023-01-04T17:36:48;10.50;99.90
61253;DHT22;47127;47.516;8.596;2023-01-04T17:39:14;10.50;99.90
61253;DHT22;47127;47.516;8.596;2023-01-04T17:41:39;10.50;99.90
61253;DHT22;47127;47.516;8.596;2023-01-04T17:44:06;10.40;99.90
61253;DHT22;47127;47.516;8.596;2023-01-04T17:46:35;10.40;99.90
61253;DHT22;47127;47.516;8.596;2023-01-04T17:49:09;10.50;99.90
61253;DHT22;47127;47.516;8.596;2023-01-04T17:51:35;10.50;99.90